createdAt,value
2022-07-28T00:00:26.511Z,99202.69
2022-07-28T00:03:28.671Z,99200.88
2022-07-28T00:06:30.824Z,99200.59
2022-07-28T00:09:32.915Z,99205.44
2022-07-28T00:12:35.027Z,99201.44
2022-07-28T00:15:37.121Z,99198.44
2022-07-28T00:18:39.620Z,99189.63
2022-07-28T00:21:41.733Z,99188.28
2022-07-28T00:24:43.940Z,99189.34
2022-07-28T00:27:46.015Z,99188.28
2022-07-28T00:30:48.125Z,99175.97
2022-07-28T00:33:50.469Z,99181.31
2022-07-28T00:36:52.548Z,99183.75
2022-07-28T00:39:54.647Z,99177.03
2022-07-28T00:42:56.716Z,99180.78
2022-07-28T00:45:58.847Z,99180.25
2022-07-28T00:49:01.081Z,99174.06
2022-07-28T00:52:07.692Z,99178.88
2022-07-28T00:55:10.204Z,99175.44
2022-07-28T00:58:12.555Z,99178.66
2022-07-28T01:01:17.720Z,99175.97
2022-07-28T01:04:19.989Z,99170.84
2022-07-28T01:07:42.035Z,99163.06
2022-07-28T01:11:11.006Z,99167.34
2022-07-28T01:14:38.871Z,99164.94
2022-07-28T01:17:58.224Z,99161.47
2022-07-28T01:21:08.196Z,99162.28
2022-07-28T01:24:31.105Z,99157.72
2022-07-28T01:28:08.063Z,99165.47
2022-07-28T01:31:10.264Z,99154.88
2022-07-28T01:34:20.082Z,99161.00
2022-07-28T01:37:26.279Z,99156.13
2022-07-28T01:40:32.731Z,99167.81
2022-07-28T01:43:38.027Z,99165.91
2022-07-28T01:46:40.226Z,99164.22
2022-07-28T01:49:42.381Z,99165.97
2022-07-28T01:52:46.183Z,99165.50
2022-07-28T01:55:48.292Z,99157.59
2022-07-28T01:58:51.367Z,99157.44
2022-07-28T02:01:53.556Z,99159.06
2022-07-28T02:04:57.178Z,99157.91
2022-07-28T02:07:59.651Z,99155.41
2022-07-28T02:11:20.456Z,99154.22
2022-07-28T02:14:24.544Z,99154.66
2022-07-28T02:17:31.020Z,99155.16
2022-07-28T02:20:33.107Z,99150.66
2022-07-28T02:23:35.291Z,99150.63
2022-07-28T02:26:41.215Z,99148.19
2022-07-28T02:29:51.413Z,99156.00
2022-07-28T02:33:03.405Z,99153.84
2022-07-28T02:36:08.023Z,99145.31
2022-07-28T02:39:22.378Z,99149.81
2022-07-28T02:42:27.696Z,99151.97
2022-07-28T02:45:30.147Z,99142.31
2022-07-28T02:48:33.576Z,99142.84
2022-07-28T02:51:35.664Z,99136.47
2022-07-28T02:54:37.895Z,99139.88
2022-07-28T02:57:40.737Z,99131.47
2022-07-28T03:00:42.852Z,99145.72
2022-07-28T03:03:46.601Z,99148.13
2022-07-28T03:06:48.828Z,99143.44
2022-07-28T03:09:51.428Z,99137.94
2022-07-28T03:12:55.188Z,99145.16
2022-07-28T03:15:57.284Z,99149.72
2022-07-28T03:18:59.377Z,99145.44
2022-07-28T03:22:01.612Z,99138.69
2022-07-28T03:25:17.303Z,99139.31
2022-07-28T03:28:20.680Z,99139.78
2022-07-28T03:31:22.861Z,99146.19
2022-07-28T03:34:25.163Z,99139.44
2022-07-28T03:38:08.723Z,99140.66
2022-07-28T03:41:10.819Z,99143.59
2022-07-28T03:44:13.171Z,99148.22
2022-07-28T03:47:15.690Z,99150.88
2022-07-28T03:50:18.214Z,99140.44
2022-07-28T03:53:22.935Z,99138.94
2022-07-28T03:56:25.145Z,99139.97
2022-07-28T03:59:27.273Z,99143.22
2022-07-28T04:02:29.456Z,99149.53
2022-07-28T04:05:31.595Z,99143.97
2022-07-28T04:08:33.896Z,99148.22
2022-07-28T04:11:35.992Z,99145.84
2022-07-28T04:14:38.084Z,99144.25
2022-07-28T04:17:40.763Z,99146.66
2022-07-28T04:20:42.876Z,99141.78
2022-07-28T04:23:44.990Z,99145.63
2022-07-28T04:26:47.141Z,99146.56
2022-07-28T04:29:49.244Z,99148.00
2022-07-28T04:32:52.943Z,99151.25
2022-07-28T04:35:55.027Z,99145.78
2022-07-28T04:38:59.387Z,99147.03
2022-07-28T04:42:02.008Z,99142.31
2022-07-28T04:45:08.199Z,99137.47
2022-07-28T04:48:12.373Z,99141.16
2022-07-28T04:51:14.574Z,99138.78
2022-07-28T04:54:17.413Z,99136.03
2022-07-28T04:57:20.755Z,99131.31
2022-07-28T05:00:24.124Z,99140.56
2022-07-28T05:03:26.235Z,99134.25
2022-07-28T05:06:28.321Z,99141.53
2022-07-28T05:09:31.023Z,99141.00
2022-07-28T05:12:33.171Z,99146.34
2022-07-28T05:15:35.335Z,99151.47
2022-07-28T05:18:37.446Z,99150.53
2022-07-28T05:21:39.588Z,99154.44
2022-07-28T05:24:41.675Z,99151.84
2022-07-28T05:27:45.169Z,99145.19
2022-07-28T05:30:47.247Z,99152.22
2022-07-28T05:33:49.540Z,99154.56
2022-07-28T05:36:54.373Z,99158.56
2022-07-28T05:39:56.471Z,99162.97
2022-07-28T05:42:58.539Z,99169.75
2022-07-28T05:46:00.715Z,99155.50
2022-07-28T05:49:03.464Z,99159.25
2022-07-28T05:52:05.943Z,99162.91
2022-07-28T05:55:08.645Z,99167.88
2022-07-28T05:58:10.774Z,99171.44
2022-07-28T06:01:12.875Z,99171.63
2022-07-28T06:04:30.864Z,99164.69
2022-07-28T06:07:43.528Z,99170.22
2022-07-28T06:11:02.283Z,99167.38
2022-07-28T06:14:04.371Z,99165.31
2022-07-28T06:17:06.604Z,99160.78
2022-07-28T06:20:09.900Z,99152.78
2022-07-28T06:23:12.033Z,99164.94
2022-07-28T06:26:14.185Z,99162.44
2022-07-28T06:29:16.351Z,99166.00
2022-07-28T06:32:18.456Z,99167.31
2022-07-28T06:35:20.611Z,99167.88
2022-07-28T06:38:22.745Z,99167.91
2022-07-28T06:41:24.858Z,99169.59
2022-07-28T06:44:48.322Z,99170.56
2022-07-28T06:47:52.714Z,99173.00
2022-07-28T06:50:56.552Z,99170.03
2022-07-28T06:53:58.949Z,99168.53
2022-07-28T06:57:01.906Z,99172.41
2022-07-28T07:00:07.255Z,99168.47
2022-07-28T07:03:09.952Z,99174.06
2022-07-28T07:06:12.254Z,99172.91
2022-07-28T07:09:14.409Z,99169.38
2022-07-28T07:12:16.556Z,99171.88
2022-07-28T07:15:18.685Z,99169.38
2022-07-28T07:18:20.854Z,99161.16
2022-07-28T07:21:22.948Z,99173.44
2022-07-28T07:24:28.013Z,99169.44
2022-07-28T07:27:30.498Z,99168.16
2022-07-28T07:30:33.058Z,99171.28
2022-07-28T07:33:35.169Z,99169.38
2022-07-28T07:36:37.292Z,99178.97
2022-07-28T07:39:39.670Z,99178.47
2022-07-28T07:42:41.747Z,99179.19
2022-07-28T07:45:43.885Z,99186.41
2022-07-28T07:48:46.089Z,99194.13
2022-07-28T07:51:48.233Z,99185.75
2022-07-28T07:54:50.368Z,99189.94
2022-07-28T07:57:52.526Z,99188.56
2022-07-28T08:00:55.989Z,99187.09
2022-07-28T08:03:59.682Z,99191.75
2022-07-28T08:07:03.111Z,99191.00
2022-07-28T08:10:06.588Z,99194.47
2022-07-28T08:13:08.869Z,99196.16
2022-07-28T08:16:11.021Z,99190.03
2022-07-28T08:19:13.274Z,99184.78
2022-07-28T08:22:16.661Z,99186.50
2022-07-28T08:25:19.016Z,99198.06
2022-07-28T08:28:21.141Z,99195.38
2022-07-28T08:31:23.653Z,99195.16
2022-07-28T08:34:31.260Z,99202.19
2022-07-28T08:37:36.553Z,99204.94
2022-07-28T08:40:39.045Z,99204.03
2022-07-28T08:43:42.792Z,99204.94
2022-07-28T08:46:45.130Z,99211.28
2022-07-28T08:49:48.653Z,99207.66
2022-07-28T08:52:54.103Z,99208.28
2022-07-28T08:55:59.718Z,99208.31
2022-07-28T08:59:02.778Z,99206.97
2022-07-28T09:02:05.112Z,99209.19
2022-07-28T09:05:08.159Z,99210.19
2022-07-28T09:08:11.600Z,99209.69
2022-07-28T09:11:13.735Z,99215.97
2022-07-28T09:14:16.246Z,99218.13
2022-07-28T09:17:19.032Z,99217.19
2022-07-28T09:20:21.176Z,99222.69
2022-07-28T09:23:41.912Z,99213.84
2022-07-28T09:27:08.196Z,99212.53
2022-07-28T09:30:10.943Z,99215.00
2022-07-28T09:33:43.014Z,99216.63
2022-07-28T09:36:45.988Z,99219.63
2022-07-28T09:39:49.248Z,99216.63
2022-07-28T09:42:55.353Z,99223.78
2022-07-28T09:46:20.856Z,99220.13
2022-07-28T09:49:47.063Z,99213.84
2022-07-28T09:52:49.220Z,99216.19
2022-07-28T09:55:59.316Z,99223.88
2022-07-28T09:59:03.444Z,99214.47
2022-07-28T10:02:05.613Z,99212.16
2022-07-28T10:05:10.005Z,99217.69
2022-07-28T10:08:12.099Z,99222.63
2022-07-28T10:11:20.933Z,99223.22
2022-07-28T10:14:34.049Z,99221.97
2022-07-28T10:17:36.127Z,99232.78
2022-07-28T10:20:38.325Z,99229.88
2022-07-28T10:23:40.494Z,99227.06
2022-07-28T10:26:45.982Z,99226.72
2022-07-28T10:29:50.073Z,99224.91
2022-07-28T10:32:52.148Z,99217.69
2022-07-28T10:35:55.241Z,99217.63
2022-07-28T10:39:05.357Z,99224.34
2022-07-28T10:42:13.581Z,99228.94
2022-07-28T10:45:15.656Z,99214.66
2022-07-28T10:48:17.800Z,99223.59
2022-07-28T10:51:21.484Z,99219.75
2022-07-28T10:54:28.341Z,99217.41
2022-07-28T10:57:30.978Z,99220.84
2022-07-28T11:00:46.874Z,99223.97
2022-07-28T11:03:56.210Z,99227.84
2022-07-28T11:07:15.004Z,99229.59
2022-07-28T11:10:18.152Z,99235.09
2022-07-28T11:13:28.909Z,99235.94
2022-07-28T11:16:36.047Z,99239.19
2022-07-28T11:20:24.968Z,99245.81
2022-07-28T11:23:47.713Z,99248.28
2022-07-28T11:26:51.400Z,99247.34
2022-07-28T11:29:53.484Z,99247.41
2022-07-28T11:32:55.568Z,99234.28
2022-07-28T11:35:58.452Z,99242.56
2022-07-28T11:39:26.695Z,99246.59
2022-07-28T11:42:30.683Z,99232.38
2022-07-28T11:45:38.426Z,99245.81
2022-07-28T11:48:45.316Z,99229.44
2022-07-28T11:52:11.344Z,99237.97
2022-07-28T11:55:13.441Z,99237.78
2022-07-28T11:58:27.843Z,99231.34
2022-07-28T12:01:31.609Z,99238.56
2022-07-28T12:04:34.502Z,99230.25
2022-07-28T12:07:48.713Z,99239.91
2022-07-28T12:10:55.749Z,99244.75
2022-07-28T12:14:05.987Z,99232.66
2022-07-28T12:17:08.242Z,99239.38
2022-07-28T12:20:14.009Z,99237.19
2022-07-28T12:23:16.415Z,99235.38
2022-07-28T12:26:32.327Z,99232.94
2022-07-28T12:29:36.699Z,99235.09
2022-07-28T12:32:38.799Z,99241.25
2022-07-28T12:35:40.972Z,99232.41
2022-07-28T12:38:43.084Z,99230.53
2022-07-28T12:41:45.181Z,99228.06
2022-07-28T12:44:48.686Z,99229.69
2022-07-28T12:47:50.889Z,99240.72
2022-07-28T12:50:53.054Z,99238.84
2022-07-28T12:53:55.924Z,99229.03
2022-07-28T12:56:58.044Z,99239.38
2022-07-28T13:00:07.251Z,99242.84
2022-07-28T13:03:24.246Z,99233.75
2022-07-28T13:06:26.356Z,99228.81
2022-07-28T13:09:32.595Z,99230.75
2022-07-28T13:12:35.299Z,99235.22
2022-07-28T13:15:37.388Z,99236.81
2022-07-28T13:18:42.943Z,99232.34
2022-07-28T13:21:57.009Z,99220.00
2022-07-28T13:25:01.846Z,99219.34
2022-07-28T13:28:04.247Z,99230.25
2022-07-28T13:31:06.450Z,99223.41
2022-07-28T13:34:09.916Z,99224.59
2022-07-28T13:37:12.236Z,99214.63
2022-07-28T13:40:14.304Z,99211.22
2022-07-28T13:43:16.398Z,99214.97
2022-07-28T13:46:19.008Z,99218.72
2022-07-28T13:49:21.321Z,99224.06
2022-07-28T13:52:33.224Z,99212.41
2022-07-28T13:55:38.002Z,99215.97
2022-07-28T13:58:40.147Z,99213.31
2022-07-28T14:01:44.019Z,99212.06
2022-07-28T14:04:52.083Z,99217.31
2022-07-28T14:07:54.245Z,99216.91
2022-07-28T14:10:59.020Z,99220.31
2022-07-28T14:14:01.161Z,99224.41
2022-07-28T14:17:14.652Z,99227.81
2022-07-28T14:20:25.504Z,99225.00
2022-07-28T14:23:27.615Z,99223.72
2022-07-28T14:26:36.904Z,99223.63
2022-07-28T14:29:39.708Z,99221.19
2022-07-28T14:32:41.798Z,99225.31
2022-07-28T14:35:44.657Z,99231.44
2022-07-28T14:38:53.635Z,99219.00
2022-07-28T14:41:56.516Z,99219.81
2022-07-28T14:45:02.599Z,99217.56
2022-07-28T14:48:05.210Z,99227.19
2022-07-28T14:51:07.327Z,99225.13
2022-07-28T14:54:09.439Z,99222.16
2022-07-28T14:57:11.837Z,99215.88
2022-07-28T15:00:15.468Z,99222.13
2022-07-28T15:03:17.660Z,99215.72
2022-07-28T15:06:19.801Z,99222.28
2022-07-28T15:09:22.132Z,99217.34
2022-07-28T15:12:24.251Z,99219.75
2022-07-28T15:15:29.135Z,99217.38
2022-07-28T15:18:31.297Z,99215.22
2022-07-28T15:21:36.488Z,99207.88
2022-07-28T15:24:38.826Z,99206.63
2022-07-28T15:27:45.665Z,99203.00
2022-07-28T15:30:52.666Z,99206.03
2022-07-28T15:33:57.965Z,99206.06
2022-07-28T15:37:01.035Z,99200.16
2022-07-28T15:40:03.572Z,99196.94
2022-07-28T15:43:05.664Z,99197.75
2022-07-28T15:46:10.524Z,99196.38
2022-07-28T15:49:12.959Z,99190.13
2022-07-28T15:52:15.152Z,99202.50
2022-07-28T15:55:17.361Z,99201.66
2022-07-28T15:58:23.048Z,99196.91
2022-07-28T16:01:26.692Z,99200.97
2022-07-28T16:04:28.956Z,99200.69
2022-07-28T16:07:33.309Z,99202.31
2022-07-28T16:10:35.434Z,99204.16
2022-07-28T16:13:38.806Z,99204.38
2022-07-28T16:16:41.219Z,99202.50
2022-07-28T16:19:49.435Z,99199.06
2022-07-28T16:22:52.515Z,99204.47
2022-07-28T16:25:54.605Z,99203.50
2022-07-28T16:28:56.722Z,99209.53
2022-07-28T16:31:58.811Z,99202.59
2022-07-28T16:35:00.899Z,99199.28
2022-07-28T16:38:04.236Z,99197.94
2022-07-28T16:41:06.331Z,99212.13
2022-07-28T16:44:09.414Z,99216.50
2022-07-28T16:47:12.362Z,99209.25
2022-07-28T16:50:16.221Z,99209.19
2022-07-28T16:53:20.561Z,99208.38
2022-07-28T16:56:22.664Z,99205.16
2022-07-28T16:59:24.944Z,99208.13
2022-07-28T17:02:47.014Z,99212.13
2022-07-28T17:05:49.107Z,99209.03
2022-07-28T17:08:51.233Z,99210.50
2022-07-28T17:11:53.324Z,99214.00
2022-07-28T17:14:55.423Z,99212.22
2022-07-28T17:17:58.564Z,99204.78
2022-07-28T17:21:01.552Z,99203.66
2022-07-28T17:24:04.262Z,99206.84
2022-07-28T17:30:30.514Z,99205.19
2022-07-28T17:33:32.933Z,99207.38
2022-07-28T17:36:35.652Z,99212.91
2022-07-28T17:39:37.779Z,99209.41
2022-07-28T17:42:39.947Z,99211.94
2022-07-28T17:45:42.189Z,99213.78
2022-07-28T17:48:44.337Z,99207.78
2022-07-28T17:51:47.635Z,99206.00
2022-07-28T17:55:08.503Z,99208.31
2022-07-28T17:58:22.135Z,99195.44
2022-07-28T18:01:29.170Z,99209.16
2022-07-28T18:04:31.254Z,99202.84
2022-07-28T18:07:49.063Z,99204.19
2022-07-28T18:10:54.301Z,99211.88
2022-07-28T18:14:04.560Z,99206.56
2022-07-28T18:17:07.269Z,99206.19
2022-07-28T18:20:10.205Z,99214.06
2022-07-28T18:23:12.728Z,99210.41
2022-07-28T18:26:14.844Z,99214.00
2022-07-28T18:29:17.787Z,99218.31
2022-07-28T18:32:19.880Z,99220.94
2022-07-28T18:35:22.256Z,99217.44
2022-07-28T18:38:24.354Z,99226.06
2022-07-28T18:41:26.579Z,99231.44
2022-07-28T18:44:28.695Z,99236.38
2022-07-28T18:47:30.873Z,99228.63
2022-07-28T18:50:32.970Z,99229.94
2022-07-28T18:53:36.139Z,99234.78
2022-07-28T18:56:38.227Z,99243.59
2022-07-28T18:59:45.480Z,99236.66
2022-07-28T19:02:55.492Z,99240.13
2022-07-28T19:05:58.265Z,99246.63
2022-07-28T19:09:00.382Z,99240.47
2022-07-28T19:12:02.574Z,99236.16
2022-07-28T19:15:05.653Z,99241.53
2022-07-28T19:18:10.431Z,99239.91
2022-07-28T19:21:13.684Z,99227.31
2022-07-28T19:24:16.398Z,99233.41
2022-07-28T19:27:19.156Z,99234.25
2022-07-28T19:30:21.299Z,99245.50
2022-07-28T19:33:24.506Z,99244.69
2022-07-28T19:36:27.552Z,99244.97
2022-07-28T19:39:34.032Z,99244.38
2022-07-28T19:42:36.168Z,99251.31
2022-07-28T19:45:38.312Z,99247.59
2022-07-28T19:48:40.437Z,99249.75
2022-07-28T19:51:42.590Z,99257.25
2022-07-28T19:54:44.685Z,99266.09
2022-07-28T19:57:59.089Z,99263.72
2022-07-28T20:01:01.508Z,99263.13
2022-07-28T20:04:05.466Z,99267.91
2022-07-28T20:07:08.056Z,99261.41
2022-07-28T20:10:10.157Z,99267.16
2022-07-28T20:13:12.266Z,99272.91
2022-07-28T20:16:14.455Z,99273.47
2022-07-28T20:19:16.612Z,99279.56
2022-07-28T20:22:18.751Z,99284.75
2022-07-28T20:25:20.875Z,99289.88
2022-07-28T20:28:23.228Z,99287.06
2022-07-28T20:31:25.609Z,99291.06
2022-07-28T20:34:27.839Z,99283.03
2022-07-28T20:37:35.886Z,99293.22
2022-07-28T20:40:39.564Z,99287.31
2022-07-28T20:43:41.652Z,99295.31
2022-07-28T20:46:43.784Z,99288.09
2022-07-28T20:49:45.863Z,99289.06
2022-07-28T20:52:48.727Z,99285.63
2022-07-28T20:55:50.812Z,99293.06
2022-07-28T20:58:52.906Z,99297.47
2022-07-28T21:01:55.380Z,99292.16
2022-07-28T21:04:57.554Z,99294.06
2022-07-28T21:08:05.707Z,99291.38
2022-07-28T21:11:08.958Z,99300.47
2022-07-28T21:14:11.091Z,99298.19
2022-07-28T21:17:13.203Z,99293.63
2022-07-28T21:20:15.283Z,99300.03
2022-07-28T21:23:18.888Z,99306.09
2022-07-28T21:26:21.005Z,99297.81
2022-07-28T21:32:23.984Z,99311.09
2022-07-28T21:35:26.135Z,99308.72
2022-07-28T21:38:28.203Z,99306.84
2022-07-28T21:41:36.526Z,99306.38
2022-07-28T21:44:39.097Z,99306.13
2022-07-28T21:47:41.553Z,99301.03
2022-07-28T21:50:44.079Z,99311.16
2022-07-28T21:53:49.562Z,99303.59
2022-07-28T21:56:51.642Z,99305.63
2022-07-28T21:59:54.268Z,99303.34
2022-07-28T22:02:56.416Z,99298.22
2022-07-28T22:06:02.419Z,99304.34
2022-07-28T22:09:04.663Z,99294.13
2022-07-28T22:12:07.501Z,99300.31
2022-07-28T22:15:10.079Z,99297.66
2022-07-28T22:18:16.678Z,99297.16
2022-07-28T22:21:19.087Z,99302.28
2022-07-28T22:24:21.241Z,99304.50
2022-07-28T22:27:23.359Z,99301.88
2022-07-28T22:30:25.440Z,99297.78
2022-07-28T22:33:27.563Z,99300.34
2022-07-28T22:36:29.635Z,99300.06
2022-07-28T22:39:32.223Z,99300.91
2022-07-28T22:42:34.304Z,99297.25
2022-07-28T22:45:49.991Z,99296.94
2022-07-28T22:48:53.295Z,99291.31
2022-07-28T22:51:55.414Z,99291.31
2022-07-28T22:58:17.198Z,99299.16
2022-07-28T23:01:19.490Z,99292.75
2022-07-28T23:04:22.406Z,99294.59
2022-07-28T23:07:53.042Z,99298.84
2022-07-28T23:10:48.820Z,99291.28
2022-07-28T23:13:50.944Z,99290.81
2022-07-28T23:16:53.692Z,99293.63
2022-07-28T23:19:58.692Z,99292.66
2022-07-28T23:23:00.870Z,99285.16
2022-07-28T23:26:03.043Z,99285.63
2022-07-28T23:29:05.207Z,99285.31
2022-07-28T23:32:13.852Z,99278.59
2022-07-28T23:35:19.348Z,99282.78
2022-07-28T23:38:21.543Z,99290.44
2022-07-28T23:41:24.061Z,99290.72
2022-07-28T23:44:26.213Z,99280.25
2022-07-28T23:47:28.478Z,99285.31
2022-07-28T23:50:30.602Z,99279.38
2022-07-28T23:53:32.806Z,99289.78
2022-07-28T23:56:34.945Z,99288.13
2022-07-28T23:59:37.079Z,99287.41
